Time;durP1;ratioP1;P1;durP2;ratioP2;P2;SDS_P1;SDS_P2;PMS_P1;PMS_P2;Temp;Humidity;BMP_temperature;BMP_pressure;BME280_temperature;BME280_humidity;BME280_pressure;Samples;Min_cycle;Max_cycle;Signal;HPM_P1;HPM_P2
2022/06/23 00:02:43;;;;;;;7.80;4.30;;;;;;;17.74;50.76;100141.94;10302913;28;21458;-75
2022/06/23 00:07:51;;;;;;;5.57;3.35;;;;;;;17.72;50.65;100135.81;10291280;28;20042;-76
2022/06/23 00:12:54;;;;;;;8.30;4.05;;;;;;;17.64;51.06;100134.84;10299394;28;20064;-75
2022/06/23 00:18:02;;;;;;;5.10;3.08;;;;;;;17.65;51.32;100138.41;10323693;28;20056;-76
2022/06/23 00:23:12;;;;;;;6.55;3.80;;;;;;;17.63;51.53;100135.84;10312994;28;20061;-75
2022/06/23 00:28:19;;;;;;;5.70;3.50;;;;;;;17.60;51.74;100138.09;10307844;28;20212;-75
2022/06/23 00:33:27;;;;;;;4.78;3.47;;;;;;;17.49;51.97;100128.47;10301355;28;20605;-76
2022/06/23 00:38:37;;;;;;;6.35;4.03;;;;;;;17.41;52.64;100133.91;10329643;28;20145;-75
2022/06/23 00:43:45;;;;;;;6.05;3.53;;;;;;;17.35;52.50;100127.31;10329357;28;20496;-75
2022/06/23 00:48:55;;;;;;;4.82;4.28;;;;;;;17.30;52.64;100121.56;10316545;28;20404;-75
2022/06/23 00:54:03;;;;;;;6.13;3.97;;;;;;;17.24;53.23;100122.28;10317227;28;20129;-75
2022/06/23 00:59:14;;;;;;;4.22;3.53;;;;;;;17.19;53.45;100119.22;10300280;28;20050;-75
2022/06/23 01:04:30;;;;;;;4.70;4.07;;;;;;;17.13;53.68;100115.34;10295214;28;20137;-76
2022/06/23 01:09:39;;;;;;;4.55;4.00;;;;;;;17.04;54.00;100125.34;10300300;28;20084;-75
2022/06/23 01:14:49;;;;;;;6.25;4.70;;;;;;;17.06;53.80;100125.19;10317888;28;20054;-75
2022/06/23 01:20:12;;;;;;;6.95;4.53;;;;;;;17.05;53.73;100131.59;10314940;28;20399;-76
2022/06/23 01:25:31;;;;;;;6.63;5.38;;;;;;;17.11;53.49;100127.34;10301551;28;20181;-75
2022/06/23 01:30:39;;;;;;;7.35;4.28;;;;;;;17.07;53.45;100118.72;10296499;28;20061;-75
2022/06/23 01:35:48;;;;;;;6.90;4.57;;;;;;;17.07;53.67;100121.44;10297658;28;20066;-75
2022/06/23 01:40:56;;;;;;;6.82;4.28;;;;;;;16.91;53.77;100107.91;10304667;28;20515;-75
2022/06/23 01:46:04;;;;;;;11.25;4.50;;;;;;;16.73;54.56;100105.38;10312499;28;20042;-75
2022/06/23 01:51:20;;;;;;;8.02;4.85;;;;;;;16.61;54.47;100098.63;10319226;28;20060;-76
2022/06/23 01:56:37;;;;;;;7.80;4.40;;;;;;;16.56;55.05;100108.13;10327730;28;20059;-76
2022/06/23 02:01:50;;;;;;;5.30;4.60;;;;;;;16.62;54.88;100108.44;10294616;28;20054;-75
2022/06/23 02:06:54;;;;;;;;;;;;;;;16.52;54.88;100112.19;10304263;28;20064;-75
2022/06/23 02:11:57;;;;;;;7.70;4.60;;;;;;;16.49;55.25;100103.56;10310000;28;19925;-75
2022/06/23 02:17:12;;;;;;;7.10;4.88;;;;;;;16.34;55.68;100104.19;10302844;28;20049;-76
2022/06/23 02:22:19;;;;;;;6.68;4.85;;;;;;;16.21;55.91;100113.81;10295101;28;20057;-75
2022/06/23 02:27:27;;;;;;;7.30;4.82;;;;;;;15.99;56.50;100107.16;10293129;28;21067;-76
2022/06/23 02:32:47;;;;;;;6.05;4.38;;;;;;;16.05;56.51;100115.50;10316684;28;20449;-75
2022/06/23 02:38:04;;;;;;;6.65;5.00;;;;;;;16.08;56.32;100122.44;10323229;28;20050;-75
2022/06/23 02:43:20;;;;;;;6.10;4.70;;;;;;;15.99;56.37;100118.00;10324473;28;20195;-75
2022/06/23 02:48:40;;;;;;;9.05;5.00;;;;;;;15.89;57.02;100120.88;10303685;28;20049;-75
2022/06/23 02:54:15;;;;;;;5.47;4.97;;;;;;;15.86;56.32;100116.66;10292295;28;20049;-75
2022/06/23 02:59:27;;;;;;;6.85;5.38;;;;;;;15.51;57.90;100116.88;10300584;28;20050;-75
2022/06/23 03:04:38;;;;;;;6.35;4.47;;;;;;;15.42;57.84;100122.25;10309017;28;20052;-75
2022/06/23 03:09:44;;;;;;;6.22;4.80;;;;;;;15.02;58.71;100133.66;10302734;28;20425;-75
2022/06/23 03:14:54;;;;;;;6.13;4.88;;;;;;;15.00;58.81;100125.72;10296625;28;20211;-75
2022/06/23 03:20:06;;;;;;;6.38;4.47;;;;;;;15.01;58.52;100134.66;10290550;28;20129;-75
2022/06/23 03:25:23;;;;;;;5.32;4.57;;;;;;;15.11;58.15;100130.00;10299254;28;20050;-75
2022/06/23 03:30:39;;;;;;;6.83;4.10;;;;;;;15.17;58.05;100134.78;10303162;28;20088;-75
2022/06/23 03:35:49;;;;;;;8.55;4.53;;;;;;;15.14;58.05;100136.91;10303281;28;20057;-75
2022/06/23 03:46:24;;;;;;;5.20;4.63;;;;;;;15.22;57.88;100140.56;10289967;28;20108;-75
2022/06/23 03:51:34;;;;;;;8.80;4.43;;;;;;;15.29;58.10;100142.59;10286315;28;20156;-75
2022/06/23 03:56:44;;;;;;;8.00;4.60;;;;;;;15.37;57.98;100130.00;10310797;28;20692;-75
2022/06/23 04:01:53;;;;;;;6.25;4.38;;;;;;;15.50;57.58;100137.69;10309070;28;20129;-75
2022/06/23 04:06:58;;;;;;;7.13;4.75;;;;;;;15.60;57.75;100132.13;10297480;28;20050;-75
2022/06/23 04:12:06;;;;;;;7.05;5.30;;;;;;;15.56;57.71;100128.06;10288844;28;20054;-75
2022/06/23 04:17:17;;;;;;;5.55;4.97;;;;;;;15.56;57.59;100126.19;10318396;28;20132;-75
2022/06/23 04:22:27;;;;;;;7.95;6.13;;;;;;;15.64;57.68;100144.34;10312624;28;20086;-75
2022/06/23 04:27:41;;;;;;;8.15;5.85;;;;;;;15.67;56.94;100144.00;10305582;28;20046;-75
2022/06/23 04:32:44;;;;;;;7.25;5.70;;;;;;;15.81;57.08;100143.38;10317512;28;20539;-75
2022/06/23 04:37:55;;;;;;;5.72;4.85;;;;;;;16.04;56.67;100148.16;10310213;28;20077;-75
2022/06/23 04:43:02;;;;;;;6.95;4.93;;;;;;;16.18;56.23;100149.38;10292308;28;20181;-75
2022/06/23 04:48:13;;;;;;;11.38;5.57;;;;;;;16.24;56.14;100152.28;10317290;28;20527;-75
2022/06/23 04:53:53;;;;;;;8.40;5.82;;;;;;;16.29;55.69;100162.63;10309776;28;20062;-75
2022/06/23 04:59:00;;;;;;;7.80;5.13;;;;;;;16.41;55.83;100150.47;10213917;28;20132;-75
2022/06/23 05:04:11;;;;;;;6.93;5.72;;;;;;;16.43;55.19;100158.41;10331291;28;20046;-75
2022/06/23 05:09:25;;;;;;;9.90;5.82;;;;;;;16.52;54.78;100152.84;10312354;28;20046;-75
2022/06/23 05:14:36;;;;;;;7.90;5.28;;;;;;;16.58;54.38;100141.31;10304892;28;20503;-75
2022/06/23 05:19:41;;;;;;;7.15;5.03;;;;;;;16.74;54.58;100143.19;10312173;28;20057;-75
2022/06/23 05:24:47;;;;;;;9.80;5.43;;;;;;;16.85;53.67;100160.97;10300158;28;20236;-75
2022/06/23 05:29:58;;;;;;;6.88;4.63;;;;;;;16.99;53.21;100162.16;10300125;28;20097;-75
2022/06/23 05:35:06;;;;;;;8.23;5.28;;;;;;;17.06;53.15;100159.59;10295283;28;20054;-75
2022/06/23 05:40:19;;;;;;;8.45;4.63;;;;;;;17.21;53.57;100153.31;10302089;28;20545;-75
2022/06/23 05:45:25;;;;;;;6.25;5.00;;;;;;;17.54;53.98;100150.50;10316311;28;20054;-75
2022/06/23 05:50:36;;;;;;;8.27;4.45;;;;;;;17.70;52.96;100157.75;10318279;28;20065;-75
2022/06/23 05:55:45;;;;;;;6.68;4.00;;;;;;;17.82;52.06;100152.75;10327169;28;20068;-76
2022/06/23 06:00:55;;;;;;;6.03;4.00;;;;;;;18.09;51.73;100149.59;10331547;28;20539;-76
2022/06/23 06:06:01;;;;;;;5.80;3.70;;;;;;;18.32;50.52;100143.31;10324938;28;20053;-75
2022/06/23 06:11:05;;;;;;;8.57;4.03;;;;;;;18.39;50.21;100154.31;10308958;28;20069;-75
2022/06/23 06:16:08;;;;;;;4.45;3.38;;;;;;;18.73;49.66;100162.91;10314777;28;20140;-75
2022/06/23 06:21:16;;;;;;;5.63;3.55;;;;;;;18.98;49.29;100155.41;10321392;28;20054;-75
2022/06/23 06:26:24;;;;;;;10.70;3.65;;;;;;;19.26;48.07;100156.66;10293805;28;20050;-75
2022/06/23 06:31:32;;;;;;;8.02;3.85;;;;;;;19.44;47.22;100162.56;10295867;28;20049;-76
2022/06/23 06:36:40;;;;;;;4.72;3.03;;;;;;;19.84;46.90;100152.22;10319609;28;20054;-76
2022/06/23 06:41:48;;;;;;;6.20;2.97;;;;;;;20.24;46.11;100158.13;10310203;28;20133;-76
2022/06/23 06:46:51;;;;;;;5.70;2.58;;;;;;;20.44;45.51;100147.47;10302070;28;20158;-76
2022/06/23 06:51:56;;;;;;;7.43;3.10;;;;;;;20.79;44.83;100157.47;10294855;28;20081;-76
2022/06/23 06:57:04;;;;;;;5.22;2.58;;;;;;;21.07;43.87;100156.66;10293506;28;20070;-77
2022/06/23 07:02:14;;;;;;;4.18;2.80;;;;;;;21.21;43.95;100157.59;10297001;28;20050;-79
2022/06/23 07:07:21;;;;;;;4.15;2.65;;;;;;;21.58;43.29;100152.75;10325115;28;20061;-79
2022/06/23 07:12:29;;;;;;;4.18;2.88;;;;;;;22.10;43.00;100149.47;10330517;28;20503;-80
2022/06/23 07:17:37;;;;;;;6.35;2.63;;;;;;;22.87;40.57;100149.16;10332721;28;20050;-80
2022/06/23 07:22:46;;;;;;;4.03;2.20;;;;;;;25.58;36.93;100139.66;10310029;28;20043;-78
2022/06/23 07:27:55;;;;;;;3.63;2.13;;;;;;;28.80;31.38;100132.63;10294700;28;20508;-79
2022/06/23 07:33:03;;;;;;;3.03;2.00;;;;;;;30.84;28.98;100132.44;10297207;28;20526;-78
2022/06/23 07:38:11;;;;;;;2.40;1.85;;;;;;;32.71;26.85;100142.19;10279828;28;20161;-77
2022/06/23 07:43:25;;;;;;;4.28;2.00;;;;;;;33.02;26.33;100154.13;10295243;28;20116;-77
2022/06/23 07:48:32;;;;;;;3.22;2.30;;;;;;;31.09;27.37;100137.34;10292841;28;20042;-78
2022/06/23 07:53:37;;;;;;;2.97;2.17;;;;;;;30.08;28.90;100137.22;10295782;28;20467;-76
2022/06/23 07:58:43;;;;;;;2.10;1.70;;;;;;;28.65;30.97;100153.41;10294931;28;20422;-76
2022/06/23 08:03:54;;;;;;;2.70;1.92;;;;;;;27.16;33.36;100143.97;10315987;28;20056;-79
2022/06/23 08:09:02;;;;;;;5.38;2.30;;;;;;;26.75;33.51;100133.84;10310172;28;20159;-77
2022/06/23 08:14:13;;;;;;;2.83;1.80;;;;;;;26.49;34.33;100130.44;10324632;28;20058;-78
2022/06/23 08:19:27;;;;;;;3.10;2.10;;;;;;;26.94;34.10;100127.19;10302754;28;20055;-75
2022/06/23 08:24:32;;;;;;;3.70;2.00;;;;;;;27.14;33.91;100129.56;10316915;28;20052;-78
2022/06/23 08:29:40;;;;;;;3.85;2.00;;;;;;;27.46;33.88;100134.75;10308033;28;20086;-77
2022/06/23 08:34:50;;;;;;;3.25;1.90;;;;;;;27.56;33.26;100134.97;10307850;28;20129;-78
2022/06/23 08:39:58;;;;;;;2.55;1.80;;;;;;;27.79;33.67;100123.00;10314051;28;20055;-77
2022/06/23 08:45:15;;;;;;;5.25;2.00;;;;;;;27.47;34.53;100119.84;10331987;28;20057;-77
2022/06/23 08:50:27;;;;;;;3.85;1.73;;;;;;;27.88;33.23;100109.66;10327946;28;20056;-76
2022/06/23 08:55:42;;;;;;;5.45;1.95;;;;;;;28.28;33.00;100106.03;10331764;28;20052;-76
2022/06/23 09:01:03;;;;;;;4.50;1.85;;;;;;;28.59;31.97;100107.44;10323109;28;20050;-77
2022/06/23 09:06:15;;;;;;;5.10;2.03;;;;;;;28.47;32.69;100117.72;10320488;28;20049;-76
2022/06/23 09:11:22;;;;;;;2.63;2.10;;;;;;;28.75;32.13;100100.25;10324250;28;20050;-77
2022/06/23 09:16:42;;;;;;;4.50;2.10;;;;;;;29.11;32.73;100093.34;10317463;28;20046;-77
2022/06/23 09:22:06;;;;;;;3.17;1.80;;;;;;;29.35;31.35;100084.84;10312893;28;20053;-77
2022/06/23 09:27:16;;;;;;;3.47;1.98;;;;;;;29.94;31.05;100076.69;10314949;28;20057;-77
2022/06/23 09:32:29;;;;;;;2.08;1.88;;;;;;;30.09;29.75;100084.34;10318209;28;20192;-77
2022/06/23 09:37:59;;;;;;;3.10;1.60;;;;;;;30.16;29.20;100071.13;10318876;28;21349;-78
2022/06/23 09:43:32;;;;;;;2.50;1.58;;;;;;;30.37;29.75;100079.66;10325410;28;20106;-77
2022/06/23 09:49:04;;;;;;;2.15;1.63;;;;;;;30.45;28.12;100071.69;10314417;28;20771;-77
2022/06/23 09:54:22;;;;;;;;;;;;;;;30.84;27.08;100067.84;10318145;28;20057;-77
2022/06/23 09:59:46;;;;;;;2.30;1.50;;;;;;;31.00;26.39;100077.94;10316758;28;20016;-77
2022/06/23 10:05:12;;;;;;;10.65;1.70;;;;;;;30.82;25.27;100064.50;10325146;28;20129;-77
2022/06/23 10:10:30;;;;;;;2.17;1.45;;;;;;;30.83;26.00;100055.09;10315538;28;20054;-77
2022/06/23 10:16:00;;;;;;;1.88;1.27;;;;;;;31.44;26.22;100054.63;10317660;28;20054;-78
2022/06/23 10:21:28;;;;;;;3.25;1.77;;;;;;;31.56;25.62;100060.75;10305957;28;20082;-78
2022/06/23 10:26:45;;;;;;;2.65;1.48;;;;;;;31.70;25.14;100052.78;10312158;28;21735;-78
2022/06/23 10:32:07;;;;;;;1.85;1.48;;;;;;;31.70;25.30;100055.56;10323414;28;21282;-78
2022/06/23 10:37:29;;;;;;;3.58;1.73;;;;;;;31.79;25.08;100052.00;10317475;28;20074;-78
2022/06/23 10:42:51;;;;;;;1.45;1.20;;;;;;;32.32;25.48;100042.66;10331537;28;20061;-78
2022/06/23 10:48:32;;;;;;;2.55;1.40;;;;;;;32.23;24.67;100037.66;10345530;28;20537;-77
2022/06/23 10:54:09;;;;;;;2.63;1.52;;;;;;;32.49;23.43;100034.03;10337670;28;21290;-78
2022/06/23 10:59:30;;;;;;;3.22;1.70;;;;;;;32.56;22.90;100031.81;10317547;28;20047;-77
2022/06/23 11:04:53;;;;;;;1.73;1.63;;;;;;;32.62;23.65;100022.34;10337681;28;20076;-77
2022/06/23 11:10:13;;;;;;;2.58;1.40;;;;;;;33.09;23.11;100018.34;10321498;28;20046;-77
2022/06/23 11:15:26;;;;;;;2.33;1.35;;;;;;;33.32;23.65;100014.97;10326899;28;20054;-77
2022/06/23 11:20:43;;;;;;;1.60;1.50;;;;;;;33.08;22.69;100006.41;10324580;28;20050;-76
2022/06/23 11:25:55;;;;;;;1.88;1.55;;;;;;;32.96;23.10;100013.38;10316499;28;20060;-76
2022/06/23 11:31:14;;;;;;;1.60;1.25;;;;;;;33.49;23.06;100002.63;10324860;28;20052;-76
2022/06/23 11:36:36;;;;;;;2.58;1.55;;;;;;;33.38;22.50;99995.44;10331968;28;20516;-77
2022/06/23 11:42:06;;;;;;;1.50;1.40;;;;;;;33.95;22.61;99988.41;10323748;28;20050;-76
2022/06/23 11:47:17;;;;;;;1.73;1.63;;;;;;;33.67;22.20;99982.50;10340962;28;20077;-77
2022/06/23 11:52:36;;;;;;;2.33;1.33;;;;;;;34.11;21.82;99978.84;10340580;28;20058;-77
2022/06/23 11:58:01;;;;;;;3.92;1.52;;;;;;;33.51;21.27;99976.16;10333518;28;20073;-76
2022/06/23 12:03:17;;;;;;;2.08;1.17;;;;;;;33.90;20.99;99977.31;10307168;28;20339;-76
2022/06/23 12:08:42;;;;;;;2.97;1.30;;;;;;;34.46;22.16;99968.50;10310152;28;20045;-77
2022/06/23 12:19:39;;;;;;;2.17;1.30;;;;;;;33.98;20.33;99974.75;10589000;23;20062;-77
2022/06/23 12:24:50;;;;;;;1.52;1.42;;;;;;;34.28;21.06;99960.88;10026199;29;20108;-76
2022/06/23 12:29:59;;;;;;;1.55;1.10;;;;;;;34.38;21.27;99966.34;10065630;23;20127;-78
2022/06/23 12:35:10;;;;;;;3.28;1.02;;;;;;;34.90;21.34;99950.75;10091778;29;20041;-77
2022/06/23 12:40:21;;;;;;;1.75;1.42;;;;;;;35.02;20.42;99945.59;10092165;29;20053;-78
2022/06/23 12:45:49;;;;;;;2.05;1.38;;;;;;;35.48;20.46;99936.63;10067639;29;20045;-78
2022/06/23 12:51:05;;;;;;;1.40;1.30;;;;;;;35.41;20.18;99941.75;10062698;29;20049;-78
2022/06/23 12:56:26;;;;;;;1.10;1.08;;;;;;;34.92;20.25;99920.59;10070510;29;20103;-78
2022/06/23 13:01:38;;;;;;;5.28;1.30;;;;;;;34.34;20.37;99924.31;10072802;29;20045;-78
2022/06/23 13:06:49;;;;;;;2.65;1.50;;;;;;;35.25;21.01;99912.38;10068670;29;20550;-78
2022/06/23 13:12:02;;;;;;;1.60;1.50;;;;;;;34.86;21.58;99911.47;10058247;29;20056;-79
2022/06/23 13:17:20;;;;;;;2.72;1.60;;;;;;;35.57;20.75;99902.44;10067175;29;20054;-79
2022/06/23 13:22:25;;;;;;;2.20;1.30;;;;;;;35.41;20.94;99899.00;10086763;29;20041;-79
2022/06/23 13:27:31;;;;;;;1.50;1.10;;;;;;;36.30;20.35;99893.38;10075741;29;20045;-79
2022/06/23 13:32:40;;;;;;;3.38;1.58;;;;;;;36.01;20.72;99884.41;10067894;29;20059;-79
2022/06/23 13:37:49;;;;;;;2.15;1.80;;;;;;;35.87;21.08;99879.56;10072000;29;20045;-79
2022/06/23 13:43:00;;;;;;;1.80;1.70;;;;;;;35.78;20.49;99877.81;10076597;29;20081;-79
2022/06/23 13:48:11;;;;;;;1.75;1.63;;;;;;;36.36;20.41;99874.56;10066371;29;20417;-79
2022/06/23 13:53:22;;;;;;;2.08;1.65;;;;;;;36.64;19.69;99866.97;10062917;29;20097;-79
2022/06/23 13:58:32;;;;;;;1.67;1.48;;;;;;;36.22;19.56;99863.31;10065019;29;20037;-79
2022/06/23 14:03:44;;;;;;;1.27;1.20;;;;;;;35.89;19.69;99852.16;10064172;29;20094;-78
2022/06/23 14:08:54;;;;;;;1.23;1.20;;;;;;;35.67;19.69;99846.41;10066638;29;20404;-79
2022/06/23 14:14:01;;;;;;;1.58;1.17;;;;;;;36.04;20.02;99839.06;10069616;29;20053;-77
2022/06/23 14:19:11;;;;;;;2.63;1.60;;;;;;;35.92;19.77;99837.59;10061010;29;20041;-79
2022/06/23 14:24:23;;;;;;;1.52;1.42;;;;;;;36.19;20.35;99838.78;10064534;29;20089;-78
2022/06/23 14:29:36;;;;;;;1.58;1.42;;;;;;;36.41;20.40;99832.50;10063585;29;20463;-78
2022/06/23 14:34:45;;;;;;;1.88;1.63;;;;;;;36.26;20.92;99825.25;10062560;29;20049;-78
2022/06/23 14:39:56;;;;;;;1.83;1.73;;;;;;;36.50;19.57;99824.22;10062630;29;20097;-79
2022/06/23 14:45:26;;;;;;;1.60;1.50;;;;;;;36.11;20.35;99828.31;10067898;29;20190;-79
2022/06/23 14:50:38;;;;;;;2.20;1.70;;;;;;;36.23;20.21;99811.03;10059142;29;20069;-77
2022/06/23 14:55:52;;;;;;;2.15;1.40;;;;;;;35.19;19.68;99811.16;10064962;29;20041;-78
2022/06/23 15:01:02;;;;;;;2.20;1.50;;;;;;;35.93;20.17;99807.69;10061281;29;20137;-78
2022/06/23 15:06:18;;;;;;;5.05;1.38;;;;;;;35.22;20.62;99809.72;10060794;29;20050;-77
2022/06/23 15:11:26;;;;;;;2.47;1.40;;;;;;;35.12;20.40;99799.53;10060641;29;20393;-80
2022/06/23 15:16:35;;;;;;;2.88;1.58;;;;;;;35.79;21.80;99788.09;10071847;29;20053;-76
2022/06/23 15:27:14;;;;;;;2.60;1.70;;;;;;;35.71;20.14;99791.59;10054865;29;20050;-78
2022/06/23 15:32:26;;;;;;;2.75;1.73;;;;;;;35.27;20.65;99776.97;10058645;29;20133;-78
2022/06/23 15:37:37;;;;;;;3.05;1.52;;;;;;;34.96;20.37;99778.56;10059915;29;20048;-80
2022/06/23 15:42:47;;;;;;;2.20;1.37;;;;;;;35.21;20.55;99772.59;10135456;29;20055;-78
2022/06/23 15:47:56;;;;;;;2.90;1.60;;;;;;;35.27;20.75;99765.81;10153719;29;20777;-78
2022/06/23 15:53:05;;;;;;;2.80;1.40;;;;;;;35.29;20.53;99763.53;10157757;29;20044;-78
2022/06/23 15:58:18;;;;;;;3.53;1.42;;;;;;;35.39;20.64;99756.13;10152743;29;21102;-77
2022/06/23 16:03:28;;;;;;;5.30;1.50;;;;;;;35.42;20.88;99756.34;10127614;29;20048;-79
2022/06/23 16:08:35;;;;;;;4.50;1.85;;;;;;;35.12;20.69;99749.31;10128157;29;20122;-79
2022/06/23 16:13:50;;;;;;;1.90;1.70;;;;;;;35.11;20.87;99744.88;10138146;29;20477;-80
2022/06/23 16:18:57;;;;;;;2.30;1.48;;;;;;;35.43;20.70;99746.00;10134617;29;20048;-80
2022/06/23 16:24:06;;;;;;;4.13;1.80;;;;;;;35.55;20.66;99729.63;10138537;29;20155;-79
2022/06/23 16:29:13;;;;;;;3.13;1.77;;;;;;;35.60;20.68;99731.47;10141979;29;20481;-80
2022/06/23 16:34:23;;;;;;;2.20;1.67;;;;;;;37.50;18.98;99726.19;10146595;29;20052;-82
2022/06/23 16:39:32;;;;;;;2.60;1.60;;;;;;;41.16;16.50;99713.19;10174767;29;20477;-79
2022/06/23 16:44:42;;;;;;;4.00;1.90;;;;;;;42.28;15.97;99715.88;10167230;29;20588;-81
2022/06/23 16:49:54;;;;;;;4.35;1.88;;;;;;;42.73;15.17;99714.88;10142950;29;20063;-82
2022/06/23 16:55:08;;;;;;;3.65;1.50;;;;;;;43.45;14.88;99710.44;10144764;29;20052;-80
2022/06/23 17:00:18;;;;;;;1.40;1.30;;;;;;;42.72;15.07;99709.56;10125716;29;20061;-80
2022/06/23 17:05:26;;;;;;;2.83;1.88;;;;;;;42.45;15.50;99706.31;10154766;29;20084;-80
2022/06/23 17:10:38;;;;;;;2.08;1.90;;;;;;;43.50;14.74;99713.00;10148868;29;20595;-80
2022/06/23 17:15:50;;;;;;;5.65;1.73;;;;;;;43.61;14.81;99702.78;10148355;29;21223;-81
2022/06/23 17:20:56;;;;;;;4.10;1.80;;;;;;;44.52;13.91;99706.63;10143507;29;20044;-80
2022/06/23 17:26:02;;;;;;;3.10;1.70;;;;;;;45.10;13.97;99701.81;10164633;29;20462;-81
2022/06/23 17:31:13;;;;;;;2.70;1.73;;;;;;;44.67;14.25;99705.75;10160115;29;20060;-80
2022/06/23 17:36:21;;;;;;;2.78;1.58;;;;;;;44.69;14.32;99698.53;10140798;29;20071;-81
2022/06/23 17:47:01;;;;;;;2.88;1.60;;;;;;;42.32;15.49;99686.94;10171277;29;20056;-81
2022/06/23 17:52:16;;;;;;;4.18;1.65;;;;;;;39.76;17.14;99700.41;10171236;29;21205;-80
2022/06/23 17:57:30;;;;;;;2.75;1.80;;;;;;;35.87;20.39;99711.94;10161799;29;20056;-81
2022/06/23 18:02:41;;;;;;;2.35;1.63;;;;;;;33.46;22.05;99695.06;10155288;29;20051;-80
2022/06/23 18:07:53;;;;;;;2.95;1.77;;;;;;;32.33;23.10;99696.97;10150260;29;20067;-79
2022/06/23 18:13:04;;;;;;;2.22;1.80;;;;;;;31.19;24.43;99703.91;10145412;29;20107;-80
2022/06/23 18:18:14;;;;;;;2.47;1.80;;;;;;;30.41;24.90;99698.47;10156815;29;20059;-80
2022/06/23 18:23:22;;;;;;;5.10;1.60;;;;;;;30.27;25.91;99703.69;10129645;29;20118;-78
2022/06/23 18:28:32;;;;;;;3.65;1.85;;;;;;;30.06;28.25;99708.31;10120692;29;20088;-78
2022/06/23 18:33:44;;;;;;;1.75;1.63;;;;;;;29.77;28.72;99714.22;10138542;29;20403;-78
2022/06/23 18:38:59;;;;;;;6.03;2.15;;;;;;;29.61;27.83;99706.94;10139482;29;20521;-78
2022/06/23 18:44:11;;;;;;;2.90;1.85;;;;;;;29.46;28.70;99701.28;10138247;29;20062;-78
2022/06/23 18:49:21;;;;;;;3.15;1.98;;;;;;;29.25;28.15;99692.00;10121590;29;20072;-78
2022/06/23 18:54:28;;;;;;;3.00;2.17;;;;;;;29.13;29.65;99695.78;10137406;29;20129;-78
2022/06/23 18:59:47;;;;;;;2.53;2.33;;;;;;;28.92;28.49;99691.16;10097746;29;20131;-77
2022/06/23 19:05:01;;;;;;;2.58;2.15;;;;;;;28.81;28.85;99690.22;10132873;29;20533;-78
2022/06/23 19:10:15;;;;;;;7.65;1.90;;;;;;;28.62;29.66;99686.16;10136469;29;20084;-79
2022/06/23 19:15:24;;;;;;;3.97;1.90;;;;;;;28.38;29.14;99688.34;10136080;29;20151;-77
2022/06/23 19:20:40;;;;;;;2.13;1.88;;;;;;;28.19;29.66;99688.69;10118992;29;20048;-79
2022/06/23 19:25:51;;;;;;;3.13;1.88;;;;;;;28.04;29.18;99689.34;10136982;29;20099;-77
2022/06/23 19:31:01;;;;;;;2.60;1.58;;;;;;;27.87;29.69;99696.84;10140186;29;20048;-78
2022/06/23 19:36:27;;;;;;;2.60;1.73;;;;;;;27.73;29.57;99701.88;10135361;29;20068;-80
2022/06/23 19:41:36;;;;;;;2.17;2.00;;;;;;;27.50;29.57;99693.81;10137429;29;20047;-78
2022/06/23 19:46:44;;;;;;;2.00;1.80;;;;;;;27.31;29.99;99701.47;10135972;29;20115;-78
2022/06/23 19:51:53;;;;;;;4.22;2.05;;;;;;;27.18;30.34;99706.25;10134197;29;20048;-78
2022/06/23 19:57:08;;;;;;;2.75;1.85;;;;;;;27.04;30.97;99709.56;10144075;29;20088;-78
2022/06/23 20:02:29;;;;;;;3.55;1.83;;;;;;;26.88;31.32;99711.25;10135051;29;20063;-78
2022/06/23 20:07:41;;;;;;;4.30;1.97;;;;;;;26.71;31.40;99703.78;10118380;29;20066;-78
2022/06/23 20:12:45;;;;;;;2.47;2.00;;;;;;;26.65;31.79;99706.66;10136380;29;20052;-77
2022/06/23 20:17:55;;;;;;;3.28;2.13;;;;;;;26.54;31.85;99702.88;10123918;29;20087;-78
2022/06/23 20:23:21;;;;;;;2.53;1.85;;;;;;;26.34;32.43;99702.50;10118873;29;20097;-77
2022/06/23 20:28:40;;;;;;;2.60;2.22;;;;;;;26.21;32.54;99698.06;10140218;29;20076;-78
2022/06/23 20:34:00;;;;;;;2.78;2.58;;;;;;;26.10;32.61;99688.75;10139842;29;20056;-79
2022/06/23 20:39:28;;;;;;;4.50;2.20;;;;;;;25.98;32.95;99680.56;10127683;29;20052;-79
2022/06/23 20:44:42;;;;;;;4.85;2.05;;;;;;;25.84;33.16;99677.22;10129623;29;20067;-77
2022/06/23 20:50:30;;;;;;;3.90;1.90;;;;;;;25.68;33.52;99677.16;10158789;29;20048;-79
2022/06/23 20:55:43;;;;;;;3.63;2.90;;;;;;;25.55;33.53;99678.19;10086205;29;20978;-78
2022/06/23 21:00:55;;;;;;;4.28;2.80;;;;;;;25.47;33.78;99681.31;10161965;29;20055;-78
2022/06/23 21:06:04;;;;;;;4.90;2.97;;;;;;;25.38;34.32;99681.66;10159277;29;20052;-78
2022/06/23 21:11:19;;;;;;;3.40;2.75;;;;;;;25.29;34.40;99674.03;10154430;29;20633;-77
2022/06/23 21:16:43;;;;;;;3.00;2.65;;;;;;;25.16;34.49;99675.91;10169034;29;20134;-77
2022/06/23 21:21:52;;;;;;;3.78;2.65;;;;;;;25.09;34.67;99679.84;10137873;29;20066;-77
2022/06/23 21:27:12;;;;;;;3.20;2.30;;;;;;;25.07;34.91;99671.03;10125315;29;20429;-78
2022/06/23 21:32:23;;;;;;;3.13;2.38;;;;;;;24.94;34.95;99667.38;10143716;29;20072;-78
2022/06/23 21:37:30;;;;;;;3.53;2.83;;;;;;;24.80;35.29;99668.66;10140262;29;20589;-77
2022/06/23 21:42:39;;;;;;;2.53;2.33;;;;;;;24.68;35.46;99659.56;10133477;29;20060;-76
2022/06/23 21:47:48;;;;;;;3.83;2.30;;;;;;;24.42;35.94;99660.81;10141183;29;20200;-77
2022/06/23 21:53:09;;;;;;;3.15;2.55;;;;;;;24.28;36.34;99655.47;10139983;29;20103;-76
2022/06/23 21:58:35;;;;;;;2.93;2.10;;;;;;;24.30;36.24;99649.75;10122664;29;20052;-76
2022/06/23 22:03:44;;;;;;;3.97;2.53;;;;;;;24.20;36.80;99646.72;10140533;29;20091;-76
2022/06/23 22:08:56;;;;;;;3.80;2.60;;;;;;;24.14;36.78;99636.69;10139933;29;20127;-77
2022/06/23 22:14:06;;;;;;;3.72;2.55;;;;;;;24.06;37.12;99641.41;10140578;29;20502;-76
2022/06/23 22:19:18;;;;;;;4.43;2.50;;;;;;;23.94;37.33;99635.00;10138834;29;20079;-76
2022/06/23 22:30:44;;;;;;;3.63;2.42;;;;;;;23.74;37.86;99624.25;10114661;29;20070;-76
2022/06/23 22:36:07;;;;;;;3.15;2.40;;;;;;;23.61;37.98;99617.06;10122053;29;20092;-77
2022/06/23 22:41:14;;;;;;;3.15;2.47;;;;;;;23.44;38.26;99611.31;10141429;29;20092;-78
2022/06/23 22:46:18;;;;;;;2.85;2.53;;;;;;;23.26;38.82;99605.84;10139115;29;20108;-77
2022/06/23 22:51:42;;;;;;;6.65;2.50;;;;;;;23.26;38.64;99611.31;10137145;29;20083;-76
2022/06/23 22:56:52;;;;;;;5.00;3.33;;;;;;;23.09;39.15;99615.66;10106672;29;20052;-76
2022/06/23 23:01:58;;;;;;;3.40;2.83;;;;;;;22.99;39.20;99610.72;10139073;29;21241;-76
2022/06/23 23:07:01;;;;;;;3.22;2.63;;;;;;;22.89;38.96;99602.16;10139597;29;20143;-79
2022/06/23 23:12:25;;;;;;;3.03;2.72;;;;;;;22.98;38.97;99598.06;10139442;29;20131;-76
2022/06/23 23:17:28;;;;;;;7.35;3.80;;;;;;;23.07;38.76;99601.38;10114204;29;20067;-77
2022/06/23 23:22:33;;;;;;;4.15;2.67;;;;;;;22.98;38.85;99592.59;10136745;29;21193;-77
2022/06/23 23:27:39;;;;;;;5.38;2.80;;;;;;;22.92;38.94;99593.47;10123265;29;20429;-79
2022/06/23 23:32:42;;;;;;;3.65;2.88;;;;;;;22.83;39.26;99595.69;10136684;29;20080;-78
2022/06/23 23:37:46;;;;;;;5.20;2.50;;;;;;;22.78;39.16;99581.81;10136696;29;20154;-77
2022/06/23 23:42:50;;;;;;;3.63;2.88;;;;;;;22.83;38.54;99565.56;10136697;29;20051;-76
2022/06/23 23:47:59;;;;;;;3.28;2.75;;;;;;;22.89;38.44;99561.09;10144196;29;20056;-76
2022/06/23 23:53:02;;;;;;;5.80;2.85;;;;;;;22.94;38.68;99550.28;10137286;29;20188;-77
2022/06/23 23:58:06;;;;;;;4.95;2.58;;;;;;;22.84;38.76;99560.91;10136096;29;20075;-77
